createdAt,value
2018-06-16T00:01:59.636Z,13.90
2018-06-16T00:04:35.539Z,14.00
2018-06-16T00:10:27.230Z,13.90
2018-06-16T00:12:57.793Z,14.00
2018-06-16T00:15:27.880Z,14.00
2018-06-16T00:18:17.526Z,14.10
2018-06-16T00:21:10.291Z,14.00
2018-06-16T00:23:40.638Z,14.10
2018-06-16T00:26:12.594Z,14.00
2018-06-16T00:28:42.688Z,14.00
2018-06-16T00:31:12.804Z,14.00
2018-06-16T00:33:44.733Z,13.90
2018-06-16T00:36:43.360Z,13.80
2018-06-16T00:39:13.460Z,13.70
2018-06-16T00:41:43.528Z,13.50
2018-06-16T00:44:14.473Z,13.50
2018-06-16T00:46:44.557Z,13.40
2018-06-16T00:49:14.671Z,13.40
2018-06-16T00:51:44.797Z,13.40
2018-06-16T00:54:14.940Z,13.40
2018-06-16T00:56:50.898Z,13.30
2018-06-16T00:59:21.363Z,13.30
2018-06-16T01:01:52.172Z,13.30
2018-06-16T01:04:22.288Z,13.20
2018-06-16T01:06:54.642Z,13.20
2018-06-16T01:09:24.759Z,13.10
2018-06-16T01:11:54.863Z,13.00
2018-06-16T01:14:24.963Z,13.00
2018-06-16T01:16:55.040Z,13.00
2018-06-16T01:19:25.117Z,13.00
2018-06-16T01:21:55.210Z,13.00
2018-06-16T01:24:25.299Z,12.80
2018-06-16T01:26:55.412Z,12.80
2018-06-16T01:29:25.604Z,12.80
2018-06-16T01:31:55.728Z,12.90
2018-06-16T01:34:28.898Z,12.80
2018-06-16T01:37:11.117Z,12.90
2018-06-16T01:39:43.142Z,12.80
2018-06-16T01:42:16.097Z,12.70
2018-06-16T01:46:49.457Z,12.80
2018-06-16T01:50:44.549Z,12.70
2018-06-16T01:53:15.605Z,12.70
2018-06-16T01:55:45.756Z,12.60
2018-06-16T01:58:15.864Z,12.50
2018-06-16T02:00:48.533Z,12.50
2018-06-16T02:05:48.361Z,12.50
2018-06-16T02:08:18.477Z,12.50
2018-06-16T02:10:48.670Z,12.40
2018-06-16T02:13:18.772Z,12.40
2018-06-16T02:15:48.878Z,12.40
2018-06-16T02:18:19.293Z,12.40
2018-06-16T02:20:49.378Z,12.30
2018-06-16T02:23:19.458Z,12.30
2018-06-16T02:25:50.661Z,12.30
2018-06-16T02:29:20.453Z,12.20
2018-06-16T02:32:42.245Z,12.20
2018-06-16T02:35:12.444Z,12.20
2018-06-16T02:37:42.989Z,12.20
2018-06-16T02:40:42.189Z,12.20
2018-06-16T02:43:55.435Z,12.20
2018-06-16T02:46:29.269Z,12.20
2018-06-16T02:49:16.516Z,12.20
2018-06-16T02:52:14.098Z,12.20
2018-06-16T02:54:44.195Z,12.20
2018-06-16T02:57:14.313Z,12.20
2018-06-16T03:00:53.508Z,12.20
2018-06-16T03:03:23.780Z,12.40
2018-06-16T03:05:53.985Z,12.40
2018-06-16T03:08:24.076Z,12.50
2018-06-16T03:10:54.158Z,12.70
2018-06-16T03:13:24.266Z,12.70
2018-06-16T03:15:56.042Z,12.80
2018-06-16T03:18:43.731Z,12.90
2018-06-16T03:21:14.628Z,12.90
2018-06-16T03:23:44.707Z,12.80
2018-06-16T03:26:16.227Z,12.70
2018-06-16T03:28:47.066Z,12.70
2018-06-16T03:31:33.933Z,12.70
2018-06-16T03:38:51.242Z,12.90
2018-06-16T03:41:21.693Z,13.10
2018-06-16T03:52:37.349Z,13.20
2018-06-16T04:04:22.730Z,13.50
2018-06-16T04:06:53.972Z,13.60
2018-06-16T04:12:32.058Z,13.70
2018-06-16T04:15:04.656Z,13.80
2018-06-16T04:21:43.885Z,14.10
2018-06-16T04:24:14.652Z,14.30
2018-06-16T04:26:45.896Z,14.50
2018-06-16T04:29:17.481Z,14.60
2018-06-16T04:31:48.418Z,14.70
2018-06-16T04:34:20.190Z,14.90
2018-06-16T04:36:52.041Z,15.00
2018-06-16T04:39:33.446Z,15.20
2018-06-16T04:42:06.972Z,15.30
2018-06-16T04:44:46.306Z,15.50
2018-06-16T04:47:18.552Z,15.70
2018-06-16T04:49:53.071Z,16.50
2018-06-16T04:52:26.634Z,17.30
2018-06-16T04:55:00.425Z,17.60
2018-06-16T04:57:32.219Z,18.30
2018-06-16T05:00:14.700Z,18.90
2018-06-16T05:02:50.689Z,19.30
2018-06-16T05:05:21.786Z,19.80
2018-06-16T05:07:53.253Z,20.50
2018-06-16T05:10:27.976Z,21.10
2018-06-16T05:13:21.853Z,21.30
2018-06-16T05:15:54.025Z,21.60
2018-06-16T05:18:26.809Z,21.90
2018-06-16T05:21:27.425Z,22.50
2018-06-16T05:24:29.105Z,22.70
2018-06-16T05:27:01.394Z,23.00
2018-06-16T05:29:31.503Z,23.50
2018-06-16T05:32:01.602Z,23.50
2018-06-16T05:34:31.721Z,23.50
2018-06-16T05:37:01.871Z,23.50
2018-06-16T05:39:31.993Z,23.60
2018-06-16T05:42:02.081Z,23.60
2018-06-16T05:44:32.172Z,23.80
2018-06-16T05:47:02.278Z,24.00
2018-06-16T05:49:32.345Z,23.70
2018-06-16T05:52:02.450Z,24.10
2018-06-16T05:54:32.555Z,24.50
2018-06-16T05:57:02.652Z,24.90
2018-06-16T05:59:32.748Z,24.40
2018-06-16T06:02:02.831Z,25.00
2018-06-16T06:04:33.080Z,24.90
2018-06-16T06:07:03.180Z,24.90
2018-06-16T06:09:33.270Z,25.10
2018-06-16T06:12:03.436Z,25.20
2018-06-16T06:14:33.612Z,25.10
2018-06-16T06:17:03.715Z,25.10
2018-06-16T06:19:33.806Z,24.90
2018-06-16T06:22:03.968Z,25.70
2018-06-16T06:24:34.045Z,26.20
2018-06-16T06:27:04.133Z,26.70
2018-06-16T06:29:34.209Z,26.90
2018-06-16T06:32:04.354Z,26.90
2018-06-16T06:34:34.368Z,27.30
2018-06-16T06:37:04.463Z,27.60
2018-06-16T06:39:34.530Z,27.90
2018-06-16T06:42:04.599Z,28.00
2018-06-16T06:44:34.719Z,27.50
2018-06-16T06:47:04.880Z,27.00
2018-06-16T06:49:34.980Z,26.90
2018-06-16T06:52:05.092Z,26.90
2018-06-16T06:54:35.181Z,27.10
2018-06-16T06:57:05.332Z,27.40
2018-06-16T06:59:35.453Z,27.40
2018-06-16T07:02:05.648Z,27.30
2018-06-16T07:04:35.764Z,27.00
2018-06-16T07:07:05.930Z,26.50
2018-06-16T07:09:36.058Z,26.10
2018-06-16T07:12:06.236Z,26.00
2018-06-16T07:17:06.120Z,26.00
2018-06-16T07:19:36.203Z,26.10
2018-06-16T07:22:06.313Z,26.40
2018-06-16T07:24:36.393Z,26.60
2018-06-16T07:27:06.574Z,26.60
2018-06-16T07:29:36.632Z,26.50
2018-06-16T07:32:06.817Z,26.50
2018-06-16T07:34:36.898Z,26.20
2018-06-16T07:37:07.018Z,26.30
2018-06-16T07:39:37.218Z,26.50
2018-06-16T07:42:07.333Z,26.40
2018-06-16T07:44:37.408Z,26.50
2018-06-16T07:47:07.540Z,26.80
2018-06-16T07:49:37.718Z,26.90
2018-06-16T07:52:07.818Z,26.50
2018-06-16T07:54:37.877Z,26.30
2018-06-16T07:57:08.088Z,26.30
2018-06-16T07:59:38.217Z,26.70
2018-06-16T08:02:08.330Z,27.20
2018-06-16T08:04:38.509Z,27.90
2018-06-16T08:09:38.404Z,28.50
2018-06-16T08:12:08.519Z,28.70
2018-06-16T08:14:38.681Z,28.90
2018-06-16T08:17:08.762Z,29.20
2018-06-16T08:19:38.905Z,29.30
2018-06-16T08:22:09.001Z,29.10
2018-06-16T08:24:39.215Z,28.80
2018-06-16T08:27:09.211Z,29.10
2018-06-16T08:29:39.490Z,29.20
2018-06-16T08:32:09.599Z,29.10
2018-06-16T08:34:39.725Z,28.80
2018-06-16T08:37:10.648Z,28.90
2018-06-16T08:39:40.880Z,28.70
2018-06-16T08:42:10.983Z,28.80
2018-06-16T08:44:41.141Z,29.00
2018-06-16T08:47:11.312Z,29.10
2018-06-16T08:49:41.466Z,29.20
2018-06-16T08:52:11.532Z,29.40
2018-06-16T08:54:41.681Z,29.40
2018-06-16T08:57:11.760Z,29.10
2018-06-16T08:59:41.900Z,28.80
2018-06-16T09:04:41.756Z,28.10
2018-06-16T09:07:11.827Z,28.10
2018-06-16T09:09:42.029Z,27.90
2018-06-16T09:12:12.164Z,27.70
2018-06-16T09:14:42.283Z,27.50
2018-06-16T09:17:12.448Z,27.30
2018-06-16T09:19:42.618Z,27.00
2018-06-16T09:22:12.775Z,27.20
2018-06-16T09:24:43.080Z,27.30
2018-06-16T09:27:13.169Z,27.60
2018-06-16T09:29:43.505Z,27.70
2018-06-16T09:32:13.768Z,27.80
2018-06-16T09:34:43.866Z,27.70
2018-06-16T09:37:13.984Z,27.30
2018-06-16T09:39:44.057Z,27.60
2018-06-16T09:42:14.213Z,27.60
2018-06-16T09:44:44.302Z,27.70
2018-06-16T09:47:14.349Z,27.50
2018-06-16T09:49:44.504Z,27.30
2018-06-16T09:52:14.545Z,27.20
2018-06-16T09:54:44.809Z,27.00
2018-06-16T09:57:14.852Z,26.50
2018-06-16T09:59:45.028Z,26.10
2018-06-16T10:02:15.076Z,26.10
2018-06-16T10:04:45.185Z,26.00
2018-06-16T10:07:15.268Z,26.00
2018-06-16T10:09:45.329Z,25.80
2018-06-16T10:12:15.386Z,26.00
2018-06-16T10:14:45.431Z,26.10
2018-06-16T10:17:15.573Z,26.00
2018-06-16T10:19:45.691Z,26.00
2018-06-16T10:22:15.760Z,25.90
2018-06-16T10:24:45.801Z,25.80
2018-06-16T10:27:15.880Z,25.70
2018-06-16T10:29:46.025Z,25.50
2018-06-16T10:32:16.124Z,25.30
2018-06-16T10:34:46.253Z,25.20
2018-06-16T10:37:16.333Z,25.10
2018-06-16T10:39:47.415Z,25.10
2018-06-16T10:44:47.136Z,24.90
2018-06-16T10:47:17.212Z,24.70
2018-06-16T10:49:47.343Z,24.70
2018-06-16T10:52:17.552Z,24.80
2018-06-16T10:54:47.732Z,24.80
2018-06-16T10:57:18.288Z,24.60
2018-06-16T10:59:48.344Z,24.50
2018-06-16T11:02:18.413Z,24.50
2018-06-16T11:04:48.563Z,24.50
2018-06-16T11:07:18.668Z,24.50
2018-06-16T11:09:48.815Z,24.50
2018-06-16T11:12:18.976Z,24.50
2018-06-16T11:14:49.031Z,24.60
2018-06-16T11:17:19.159Z,24.60
2018-06-16T11:19:49.219Z,24.60
2018-06-16T11:22:19.447Z,24.60
2018-06-16T11:24:49.507Z,24.60
2018-06-16T11:27:19.604Z,24.70
2018-06-16T11:29:49.676Z,24.70
2018-06-16T11:32:19.827Z,24.80
2018-06-16T11:34:49.908Z,24.70
2018-06-16T11:37:20.144Z,24.60
2018-06-16T11:39:50.232Z,24.60
2018-06-16T11:42:20.424Z,24.60
2018-06-16T11:44:50.724Z,24.60
2018-06-16T11:47:20.802Z,24.50
2018-06-16T11:49:50.935Z,24.50
2018-06-16T11:52:21.034Z,24.40
2018-06-16T11:54:51.124Z,24.40
2018-06-16T11:57:21.221Z,24.40
2018-06-16T11:59:51.320Z,24.30
2018-06-16T12:02:21.391Z,24.20
2018-06-16T12:04:51.439Z,24.20
2018-06-16T12:07:21.528Z,24.20
2018-06-16T12:09:51.632Z,24.20
2018-06-16T12:12:21.751Z,24.10
2018-06-16T12:14:51.812Z,24.10
2018-06-16T12:17:21.888Z,24.10
2018-06-16T12:19:51.965Z,24.00
2018-06-16T12:22:22.051Z,24.00
2018-06-16T12:24:52.096Z,23.90
2018-06-16T12:27:22.179Z,23.80
2018-06-16T12:29:52.257Z,23.70
2018-06-16T12:32:22.360Z,23.70
2018-06-16T12:34:52.421Z,23.60
2018-06-16T12:37:22.487Z,23.60
2018-06-16T12:39:52.672Z,23.40
2018-06-16T12:42:23.108Z,23.30
2018-06-16T12:44:53.188Z,23.30
2018-06-16T12:47:23.283Z,23.20
2018-06-16T12:49:53.419Z,23.20
2018-06-16T12:52:23.491Z,23.20
2018-06-16T12:54:53.919Z,23.10
2018-06-16T12:57:24.107Z,23.10
2018-06-16T12:59:54.169Z,23.00
2018-06-16T13:02:24.235Z,22.90
2018-06-16T13:04:54.296Z,22.80
2018-06-16T13:07:24.391Z,22.70
2018-06-16T13:09:54.480Z,22.50
2018-06-16T13:12:24.740Z,22.30
2018-06-16T13:14:54.841Z,22.10
2018-06-16T13:17:24.896Z,22.00
2018-06-16T13:19:54.983Z,21.90
2018-06-16T13:22:25.276Z,21.60
2018-06-16T13:24:55.359Z,21.50
2018-06-16T13:27:25.436Z,21.30
2018-06-16T13:29:55.595Z,21.20
2018-06-16T13:32:25.773Z,21.10
2018-06-16T13:34:55.939Z,20.90
2018-06-16T13:37:26.135Z,20.80
2018-06-16T13:39:56.269Z,20.70
2018-06-16T13:42:26.336Z,20.70
2018-06-16T13:44:56.429Z,20.60
2018-06-16T13:47:26.516Z,20.60
2018-06-16T13:49:56.781Z,20.50
2018-06-16T13:52:26.868Z,20.50
2018-06-16T13:54:56.973Z,20.40
2018-06-16T13:57:27.254Z,20.30
2018-06-16T13:59:57.336Z,20.30
2018-06-16T14:02:27.427Z,20.40
2018-06-16T14:04:57.500Z,20.40
2018-06-16T14:07:27.584Z,20.40
2018-06-16T14:09:57.688Z,20.40
2018-06-16T14:12:27.759Z,20.40
2018-06-16T14:14:57.889Z,20.50
2018-06-16T14:17:27.940Z,20.60
2018-06-16T14:19:58.148Z,20.70
2018-06-16T14:22:28.336Z,20.70
2018-06-16T14:24:58.404Z,20.70
2018-06-16T14:27:28.480Z,20.80
2018-06-16T14:29:58.599Z,20.90
2018-06-16T14:32:28.733Z,21.00
2018-06-16T14:34:58.811Z,21.00
2018-06-16T14:37:28.869Z,21.10
2018-06-16T14:39:58.940Z,21.20
2018-06-16T14:42:29.113Z,21.20
2018-06-16T14:44:59.193Z,21.20
2018-06-16T14:47:29.252Z,21.30
2018-06-16T14:49:59.307Z,21.30
2018-06-16T14:52:29.373Z,21.50
2018-06-16T14:54:59.440Z,21.40
2018-06-16T14:57:29.526Z,21.50
2018-06-16T14:59:59.641Z,21.40
2018-06-16T15:02:29.696Z,21.50
2018-06-16T15:04:59.811Z,21.50
2018-06-16T15:07:29.844Z,21.50
2018-06-16T15:09:59.912Z,21.50
2018-06-16T15:12:30.001Z,21.40
2018-06-16T15:15:00.118Z,21.50
2018-06-16T15:17:30.324Z,21.50
2018-06-16T15:20:00.592Z,21.40
2018-06-16T15:22:30.647Z,21.50
2018-06-16T15:25:00.713Z,21.40
2018-06-16T15:27:30.836Z,21.40
2018-06-16T15:30:00.904Z,21.40
2018-06-16T15:32:30.972Z,21.40
2018-06-16T15:35:01.135Z,21.40
2018-06-16T15:37:31.191Z,21.40
2018-06-16T15:40:01.276Z,21.50
2018-06-16T15:42:31.411Z,21.40
2018-06-16T15:45:01.504Z,21.50
2018-06-16T15:47:31.564Z,21.40
2018-06-16T15:50:02.636Z,21.50
2018-06-16T15:52:32.715Z,21.50
2018-06-16T15:55:02.816Z,21.50
2018-06-16T15:57:32.930Z,21.50
2018-06-16T16:00:03.266Z,21.50
2018-06-16T16:02:33.357Z,21.60
2018-06-16T16:05:03.477Z,21.60
2018-06-16T16:07:33.636Z,21.60
2018-06-16T16:10:03.817Z,21.60
2018-06-16T16:12:33.870Z,21.60
2018-06-16T16:15:04.065Z,21.70
2018-06-16T16:17:34.139Z,21.70
2018-06-16T16:20:04.330Z,21.70
2018-06-16T16:22:34.364Z,21.70
2018-06-16T16:25:04.588Z,21.70
2018-06-16T16:27:34.757Z,21.70
2018-06-16T16:30:04.964Z,21.70
2018-06-16T16:32:35.035Z,21.70
2018-06-16T16:35:05.163Z,21.70
2018-06-16T16:37:35.412Z,21.70
2018-06-16T16:40:05.809Z,21.60
2018-06-16T16:42:35.857Z,21.50
2018-06-16T16:45:06.745Z,21.50
2018-06-16T16:47:36.938Z,21.50
2018-06-16T16:50:07.060Z,21.50
2018-06-16T16:52:37.126Z,21.40
2018-06-16T16:55:07.208Z,21.50
2018-06-16T16:57:37.324Z,21.40
2018-06-16T17:00:07.584Z,21.40
2018-06-16T17:02:37.708Z,21.40
2018-06-16T17:05:08.014Z,21.40
2018-06-16T17:07:38.191Z,21.30
2018-06-16T17:10:08.996Z,21.30
2018-06-16T17:12:39.208Z,21.30
2018-06-16T17:15:09.302Z,21.20
2018-06-16T17:17:39.479Z,21.20
2018-06-16T17:20:09.605Z,21.20
2018-06-16T17:22:39.703Z,21.10
2018-06-16T17:25:09.781Z,21.10
2018-06-16T17:27:39.916Z,21.10
2018-06-16T17:30:10.020Z,21.00
2018-06-16T17:32:40.080Z,21.00
2018-06-16T17:35:10.235Z,20.90
2018-06-16T17:37:40.312Z,20.80
2018-06-16T17:40:10.399Z,20.80
2018-06-16T17:42:40.504Z,20.80
2018-06-16T17:45:10.752Z,20.70
2018-06-16T17:47:40.829Z,20.60
2018-06-16T17:50:11.440Z,20.70
2018-06-16T17:52:41.507Z,20.70
2018-06-16T17:55:11.600Z,20.70
2018-06-16T17:57:41.672Z,20.70
2018-06-16T18:00:11.899Z,20.60
2018-06-16T18:02:42.042Z,20.60
2018-06-16T18:05:12.151Z,20.60
2018-06-16T18:07:42.372Z,20.50
2018-06-16T18:10:12.831Z,20.50
2018-06-16T18:12:43.038Z,20.40
2018-06-16T18:15:13.124Z,20.40
2018-06-16T18:17:43.218Z,20.30
2018-06-16T18:20:13.304Z,20.30
2018-06-16T18:22:43.379Z,20.20
2018-06-16T18:25:13.510Z,20.10
2018-06-16T18:27:43.604Z,20.10
2018-06-16T18:30:13.728Z,19.90
2018-06-16T18:32:43.784Z,19.90
2018-06-16T18:35:14.034Z,19.80
2018-06-16T18:37:44.160Z,19.70
2018-06-16T18:40:14.192Z,19.60
2018-06-16T18:42:44.256Z,19.50
2018-06-16T18:45:14.363Z,19.50
2018-06-16T18:47:44.433Z,19.30
2018-06-16T18:50:14.663Z,19.20
2018-06-16T18:52:44.756Z,19.10
2018-06-16T18:55:14.912Z,19.00
2018-06-16T18:57:45.088Z,19.00
2018-06-16T19:00:15.164Z,18.90
2018-06-16T19:02:46.117Z,18.80
2018-06-16T19:05:16.384Z,18.80
2018-06-16T19:07:46.568Z,18.70
2018-06-16T19:10:16.684Z,18.60
2018-06-16T19:12:46.768Z,18.60
2018-06-16T19:15:17.083Z,18.50
2018-06-16T19:17:47.256Z,18.50
2018-06-16T19:20:17.340Z,18.40
2018-06-16T19:22:47.483Z,18.40
2018-06-16T19:25:17.700Z,18.30
2018-06-16T19:30:17.550Z,18.30
2018-06-16T19:32:47.708Z,18.20
2018-06-16T19:35:17.854Z,18.20
2018-06-16T19:37:48.435Z,18.10
2018-06-16T19:40:18.519Z,18.10
2018-06-16T19:42:48.600Z,18.10
2018-06-16T19:45:18.756Z,18.00
2018-06-16T19:47:48.873Z,18.00
2018-06-16T19:50:19.393Z,18.00
2018-06-16T19:52:50.038Z,17.90
2018-06-16T19:55:20.489Z,17.80
2018-06-16T19:57:56.101Z,17.80
2018-06-16T20:00:26.389Z,17.70
2018-06-16T20:02:56.680Z,17.60
2018-06-16T20:05:27.151Z,17.60
2018-06-16T20:07:57.386Z,17.60
2018-06-16T20:10:27.511Z,17.60
2018-06-16T20:12:57.859Z,17.60
2018-06-16T20:15:27.925Z,17.60
2018-06-16T20:17:58.314Z,17.60
2018-06-16T20:20:28.508Z,17.60
2018-06-16T20:22:58.712Z,17.50
2018-06-16T20:25:28.977Z,17.50
2018-06-16T20:27:59.063Z,17.50
2018-06-16T20:30:29.240Z,17.50
2018-06-16T20:35:29.114Z,17.50
2018-06-16T20:37:59.185Z,17.50
2018-06-16T20:40:29.280Z,17.50
2018-06-16T20:42:59.372Z,17.50
2018-06-16T20:45:29.455Z,17.50
2018-06-16T20:47:59.647Z,17.40
2018-06-16T20:50:29.801Z,17.40
2018-06-16T20:55:29.724Z,17.40
2018-06-16T20:57:59.811Z,17.50
2018-06-16T21:02:59.660Z,17.30
2018-06-16T21:05:29.768Z,17.40
2018-06-16T21:07:59.839Z,17.40
2018-06-16T21:10:29.956Z,17.40
2018-06-16T21:13:00.037Z,17.40
2018-06-16T21:15:30.188Z,17.40
2018-06-16T21:18:00.264Z,17.30
2018-06-16T21:20:30.348Z,17.30
2018-06-16T21:23:00.520Z,17.30
2018-06-16T21:25:30.594Z,17.30
2018-06-16T21:28:00.884Z,17.20
2018-06-16T21:30:30.961Z,17.20
2018-06-16T21:33:01.085Z,17.20
2018-06-16T21:35:31.152Z,17.10
2018-06-16T21:38:01.268Z,17.20
2018-06-16T21:40:31.347Z,17.20
2018-06-16T21:43:05.837Z,17.20
2018-06-16T21:45:35.925Z,17.10
2018-06-16T21:48:06.457Z,17.10
2018-06-16T21:50:36.597Z,17.10
2018-06-16T21:53:09.881Z,17.10
2018-06-16T21:55:39.997Z,17.10
2018-06-16T21:58:10.090Z,17.10
2018-06-16T22:00:40.260Z,17.10
2018-06-16T22:03:10.343Z,17.10
2018-06-16T22:05:40.524Z,17.10
2018-06-16T22:08:15.849Z,17.10
2018-06-16T22:10:45.977Z,17.10
2018-06-16T22:13:16.144Z,17.10
2018-06-16T22:15:46.294Z,17.00
2018-06-16T22:18:16.703Z,17.00
2018-06-16T22:43:15.686Z,16.80
2018-06-16T22:57:55.745Z,16.60
2018-06-16T23:00:28.085Z,16.50
2018-06-16T23:07:59.762Z,16.50
2018-06-16T23:15:55.535Z,16.40
2018-06-16T23:18:26.499Z,16.30
2018-06-16T23:27:21.082Z,16.20
